createdAt,value
2023-03-29T00:00:50.189Z,1.83
2023-03-29T00:03:34.930Z,2.38
2023-03-29T00:06:22.299Z,1.90
2023-03-29T00:09:06.764Z,2.00
2023-03-29T00:11:49.386Z,1.88
2023-03-29T00:14:32.051Z,1.90
2023-03-29T00:17:14.623Z,1.98
2023-03-29T00:19:58.649Z,1.98
2023-03-29T00:22:42.061Z,1.60
2023-03-29T00:25:25.116Z,2.10
2023-03-29T00:28:07.680Z,1.85
2023-03-29T00:30:50.850Z,2.05
2023-03-29T00:33:33.512Z,2.03
2023-03-29T00:36:18.018Z,1.83
2023-03-29T00:39:00.639Z,2.05
2023-03-29T00:41:43.352Z,2.03
2023-03-29T00:44:44.335Z,1.80
2023-03-29T00:47:29.037Z,1.70
2023-03-29T00:50:15.803Z,1.58
2023-03-29T00:53:02.464Z,1.85
2023-03-29T00:55:46.883Z,1.70
2023-03-29T00:58:31.380Z,1.98
2023-03-29T01:01:19.322Z,2.17
2023-03-29T01:04:04.304Z,2.05
2023-03-29T01:06:49.996Z,1.73
2023-03-29T01:09:37.468Z,1.70
2023-03-29T01:12:22.108Z,1.50
2023-03-29T01:15:06.736Z,1.80
2023-03-29T01:17:50.929Z,1.63
2023-03-29T01:20:43.671Z,1.70
2023-03-29T01:23:32.419Z,1.67
2023-03-29T01:26:20.206Z,1.63
2023-03-29T01:29:08.709Z,1.70
2023-03-29T01:31:53.094Z,1.70
2023-03-29T01:34:38.318Z,1.88
2023-03-29T01:37:24.598Z,2.08
2023-03-29T01:40:08.147Z,1.77
2023-03-29T01:42:54.185Z,1.85
2023-03-29T01:45:40.148Z,1.75
2023-03-29T01:48:26.740Z,1.70
2023-03-29T01:51:10.632Z,1.60
2023-03-29T01:53:56.141Z,1.88
2023-03-29T01:56:40.602Z,1.80
2023-03-29T01:59:28.185Z,1.60
2023-03-29T02:02:16.136Z,1.55
2023-03-29T02:04:59.292Z,1.90
2023-03-29T02:07:43.503Z,1.77
2023-03-29T02:10:26.615Z,1.85
2023-03-29T02:13:09.303Z,1.50
2023-03-29T02:15:51.937Z,1.67
2023-03-29T02:18:36.852Z,1.73
2023-03-29T02:21:22.251Z,1.80
2023-03-29T02:24:06.912Z,1.60
2023-03-29T02:26:49.816Z,1.70
2023-03-29T02:29:32.417Z,1.70
2023-03-29T02:32:17.513Z,1.65
2023-03-29T02:35:03.215Z,1.48
2023-03-29T02:37:49.495Z,1.60
2023-03-29T02:40:33.213Z,1.40
2023-03-29T02:43:17.040Z,1.40
2023-03-29T02:45:59.749Z,1.50
2023-03-29T02:48:44.846Z,1.90
2023-03-29T02:51:30.767Z,1.52
2023-03-29T02:54:15.547Z,1.80
2023-03-29T02:56:59.115Z,1.33
2023-03-29T02:59:44.003Z,1.60
2023-03-29T03:02:27.786Z,1.65
2023-03-29T03:05:11.263Z,1.80
2023-03-29T03:07:55.197Z,1.88
2023-03-29T03:10:38.002Z,1.67
2023-03-29T03:13:20.714Z,1.52
2023-03-29T03:16:03.441Z,1.75
2023-03-29T03:18:46.175Z,1.73
2023-03-29T03:21:29.168Z,1.35
2023-03-29T03:24:13.098Z,1.83
2023-03-29T03:26:56.640Z,1.48
2023-03-29T03:29:41.372Z,1.60
2023-03-29T03:32:29.562Z,1.50
2023-03-29T03:35:47.994Z,1.75
2023-03-29T03:38:32.096Z,1.85
2023-03-29T03:41:17.438Z,1.75
2023-03-29T03:44:01.142Z,1.60
2023-03-29T03:46:44.260Z,1.50
2023-03-29T03:49:27.086Z,1.52
2023-03-29T03:52:10.821Z,1.58
2023-03-29T03:54:53.551Z,1.13
2023-03-29T03:57:57.564Z,1.50
2023-03-29T04:00:40.415Z,1.40
2023-03-29T04:03:39.148Z,1.45
2023-03-29T04:06:23.200Z,1.65
2023-03-29T04:09:26.246Z,1.40
2023-03-29T04:12:23.337Z,1.60
2023-03-29T04:15:08.741Z,1.35
2023-03-29T04:17:51.956Z,1.42
2023-03-29T04:20:40.260Z,1.65
2023-03-29T04:23:23.189Z,1.40
2023-03-29T04:26:06.464Z,1.70
2023-03-29T04:29:01.356Z,1.48
2023-03-29T04:31:57.130Z,1.52
2023-03-29T04:34:58.608Z,1.50
2023-03-29T04:37:41.772Z,1.70
2023-03-29T04:40:27.304Z,1.45
2023-03-29T04:43:40.337Z,1.90
2023-03-29T04:46:37.784Z,1.70
2023-03-29T04:49:22.956Z,1.60
2023-03-29T04:52:08.249Z,2.10
2023-03-29T04:54:52.715Z,1.90
2023-03-29T04:57:40.428Z,1.70
2023-03-29T05:00:31.577Z,1.83
2023-03-29T05:03:32.925Z,1.50
2023-03-29T05:06:21.711Z,1.90
2023-03-29T05:09:05.056Z,1.90
2023-03-29T05:11:58.178Z,2.00
2023-03-29T05:14:41.431Z,1.95
2023-03-29T05:17:26.740Z,2.33
2023-03-29T05:20:13.255Z,1.88
2023-03-29T05:23:00.449Z,1.80
2023-03-29T05:26:09.924Z,2.40
2023-03-29T05:28:53.444Z,2.40
2023-03-29T05:31:36.898Z,2.00
2023-03-29T05:34:20.063Z,2.47
2023-03-29T05:37:07.280Z,2.10
2023-03-29T05:40:07.008Z,2.28
2023-03-29T05:42:58.169Z,2.95
2023-03-29T05:45:41.472Z,2.40
2023-03-29T05:48:24.924Z,2.40
2023-03-29T05:51:08.292Z,2.58
2023-03-29T05:53:51.492Z,2.50
2023-03-29T05:56:35.537Z,2.55
2023-03-29T05:59:19.474Z,2.50
2023-03-29T06:02:04.837Z,2.50
2023-03-29T06:04:48.648Z,2.67
2023-03-29T06:07:40.285Z,3.08
2023-03-29T06:10:43.160Z,2.60
2023-03-29T06:13:50.228Z,2.53
2023-03-29T06:16:33.494Z,2.60
2023-03-29T06:19:17.314Z,2.92
2023-03-29T06:22:01.356Z,2.63
2023-03-29T06:24:46.187Z,3.00
2023-03-29T06:27:38.392Z,3.10
2023-03-29T06:30:22.763Z,3.60
2023-03-29T06:33:11.358Z,3.30
2023-03-29T06:36:06.480Z,3.38
2023-03-29T06:38:49.182Z,3.25
2023-03-29T06:41:52.877Z,3.35
2023-03-29T06:44:54.397Z,3.55
2023-03-29T06:47:39.568Z,3.63
2023-03-29T06:50:23.398Z,3.63
2023-03-29T06:53:17.937Z,3.50
2023-03-29T06:56:09.923Z,3.70
2023-03-29T06:58:55.331Z,4.00
2023-03-29T07:02:04.598Z,3.88
2023-03-29T07:05:13.453Z,3.90
2023-03-29T07:08:11.944Z,3.90
2023-03-29T07:11:05.136Z,4.07
2023-03-29T07:14:17.699Z,3.95
2023-03-29T07:17:01.068Z,4.40
2023-03-29T07:19:56.283Z,4.10
2023-03-29T07:22:57.459Z,3.70
2023-03-29T07:25:40.984Z,3.53
2023-03-29T07:28:24.282Z,4.43
2023-03-29T07:31:10.943Z,3.70
2023-03-29T07:34:00.642Z,3.10
2023-03-29T07:36:43.731Z,3.38
2023-03-29T07:39:27.874Z,3.30
2023-03-29T07:42:30.550Z,3.63
2023-03-29T07:45:14.614Z,3.65
2023-03-29T07:48:10.577Z,3.55
2023-03-29T07:51:19.441Z,3.28
2023-03-29T07:54:10.711Z,3.70
2023-03-29T07:57:09.715Z,3.90
2023-03-29T07:59:58.082Z,2.88
2023-03-29T08:02:44.367Z,3.45
2023-03-29T08:05:39.908Z,3.17
2023-03-29T08:08:26.935Z,3.35
2023-03-29T08:11:17.806Z,3.15
2023-03-29T08:14:13.159Z,3.58
2023-03-29T08:17:09.859Z,3.50
2023-03-29T08:19:57.966Z,3.15
2023-03-29T08:22:43.994Z,3.30
2023-03-29T08:25:49.987Z,3.42
2023-03-29T08:28:33.521Z,3.08
2023-03-29T08:31:17.707Z,3.30
2023-03-29T08:34:01.065Z,3.53
2023-03-29T08:37:03.127Z,3.25
2023-03-29T08:39:55.796Z,3.13
2023-03-29T08:43:22.106Z,3.50
2023-03-29T08:46:35.099Z,3.15
2023-03-29T08:49:41.622Z,2.92
2023-03-29T08:52:32.204Z,3.30
2023-03-29T08:55:25.823Z,2.80
2023-03-29T08:58:33.464Z,3.22
2023-03-29T09:01:16.868Z,3.20
2023-03-29T09:04:09.081Z,2.95
2023-03-29T09:07:09.466Z,2.47
2023-03-29T09:09:57.113Z,2.92
2023-03-29T09:13:06.188Z,3.10
2023-03-29T09:15:53.312Z,2.70
2023-03-29T09:18:53.127Z,3.03
2023-03-29T09:21:43.259Z,3.05
2023-03-29T09:24:41.032Z,2.97
2023-03-29T09:27:35.397Z,3.22
2023-03-29T09:30:36.299Z,2.72
2023-03-29T09:33:24.713Z,2.50
2023-03-29T09:36:26.725Z,2.85
2023-03-29T09:39:14.394Z,2.40
2023-03-29T09:41:59.785Z,2.80
2023-03-29T09:44:44.891Z,2.78
2023-03-29T09:47:35.194Z,2.67
2023-03-29T09:50:31.466Z,2.88
2023-03-29T09:53:18.611Z,2.40
2023-03-29T09:56:11.149Z,2.70
2023-03-29T09:59:19.624Z,2.40
2023-03-29T10:02:09.143Z,2.72
2023-03-29T10:04:55.173Z,2.38
2023-03-29T10:07:44.558Z,2.72
2023-03-29T10:10:29.605Z,2.50
2023-03-29T10:13:17.727Z,2.85
2023-03-29T10:16:04.026Z,2.85
2023-03-29T10:18:47.428Z,2.50
2023-03-29T10:21:30.240Z,2.22
2023-03-29T10:24:12.877Z,2.40
2023-03-29T10:26:56.914Z,2.70
2023-03-29T10:29:42.293Z,2.85
2023-03-29T10:32:28.065Z,2.78
2023-03-29T10:35:11.794Z,2.60
2023-03-29T10:37:57.547Z,2.80
2023-03-29T10:40:44.009Z,2.90
2023-03-29T10:43:29.481Z,2.70
2023-03-29T10:46:19.920Z,3.20
2023-03-29T10:49:06.171Z,2.78
2023-03-29T10:51:50.771Z,3.10
2023-03-29T10:54:33.484Z,3.33
2023-03-29T10:57:22.216Z,3.63
2023-03-29T11:00:11.208Z,2.97
2023-03-29T11:03:09.138Z,3.40
2023-03-29T11:05:55.674Z,3.13
2023-03-29T11:08:45.106Z,3.22
2023-03-29T11:11:44.048Z,3.03
2023-03-29T11:14:31.307Z,2.90
2023-03-29T11:17:20.367Z,3.20
2023-03-29T11:20:13.508Z,2.88
2023-03-29T11:23:01.333Z,2.80
2023-03-29T11:25:52.077Z,3.33
2023-03-29T11:28:40.618Z,3.10
2023-03-29T11:31:28.506Z,3.50
2023-03-29T11:34:22.085Z,2.95
2023-03-29T11:37:05.781Z,3.20
2023-03-29T11:39:56.727Z,3.28
2023-03-29T11:42:41.878Z,3.17
2023-03-29T11:45:27.212Z,3.40
2023-03-29T11:48:14.074Z,3.40
2023-03-29T11:50:59.834Z,3.38
2023-03-29T11:53:45.291Z,3.45
2023-03-29T11:56:31.607Z,3.47
2023-03-29T11:59:17.168Z,3.78
2023-03-29T12:02:02.978Z,3.60
2023-03-29T12:04:47.821Z,3.60
2023-03-29T12:07:33.037Z,4.00
2023-03-29T12:10:18.421Z,3.72
2023-03-29T12:13:05.694Z,3.17
2023-03-29T12:15:53.758Z,3.28
2023-03-29T12:18:40.862Z,3.47
2023-03-29T12:21:24.432Z,3.92
2023-03-29T12:24:12.347Z,3.47
2023-03-29T12:27:04.694Z,3.70
2023-03-29T12:29:56.075Z,4.22
2023-03-29T12:32:45.252Z,3.70
2023-03-29T12:35:58.939Z,3.88
2023-03-29T12:39:02.265Z,4.00
2023-03-29T12:42:07.841Z,3.83
2023-03-29T12:45:30.804Z,4.35
2023-03-29T12:48:15.899Z,4.72
2023-03-29T12:51:01.774Z,3.80
2023-03-29T12:53:45.403Z,4.20
2023-03-29T12:56:36.915Z,4.35
2023-03-29T12:59:27.061Z,4.20
2023-03-29T13:02:24.675Z,3.90
2023-03-29T13:05:22.493Z,4.47
2023-03-29T13:08:22.854Z,4.22
2023-03-29T13:11:06.248Z,4.38
2023-03-29T13:13:50.948Z,4.20
2023-03-29T13:16:35.041Z,4.25
2023-03-29T13:19:27.292Z,4.00
2023-03-29T13:22:16.186Z,4.20
2023-03-29T13:25:07.589Z,3.90
2023-03-29T13:27:52.699Z,3.90
2023-03-29T13:30:41.485Z,3.95
2023-03-29T13:33:33.779Z,4.30
2023-03-29T13:36:21.093Z,3.63
2023-03-29T13:39:05.511Z,4.03
2023-03-29T13:41:51.123Z,4.20
2023-03-29T13:44:41.304Z,4.30
2023-03-29T13:47:38.975Z,4.38
2023-03-29T13:50:30.410Z,3.92
2023-03-29T13:53:15.996Z,4.00
2023-03-29T13:55:59.263Z,4.00
2023-03-29T13:58:45.211Z,3.95
2023-03-29T14:01:29.952Z,3.67
2023-03-29T14:04:15.001Z,3.67
2023-03-29T14:06:57.826Z,3.58
2023-03-29T14:09:43.197Z,3.63
2023-03-29T14:12:27.712Z,3.67
2023-03-29T14:15:20.695Z,3.70
2023-03-29T14:18:03.902Z,4.15
2023-03-29T14:20:47.272Z,3.90
2023-03-29T14:23:31.351Z,3.90
2023-03-29T14:26:16.406Z,4.53
2023-03-29T14:29:01.109Z,4.20
2023-03-29T14:31:45.470Z,3.65
2023-03-29T14:34:28.649Z,3.85
2023-03-29T14:37:14.128Z,3.67
2023-03-29T14:39:56.952Z,3.72
2023-03-29T14:42:39.666Z,3.95
2023-03-29T14:45:24.233Z,4.03
2023-03-29T14:48:10.852Z,3.55
2023-03-29T14:50:53.778Z,3.80
2023-03-29T14:53:38.011Z,3.65
2023-03-29T14:56:24.128Z,3.88
2023-03-29T14:59:17.507Z,3.92
2023-03-29T15:02:00.101Z,3.72
2023-03-29T15:04:44.090Z,3.88
2023-03-29T15:07:28.240Z,3.30
2023-03-29T15:10:17.384Z,3.83
2023-03-29T15:13:01.662Z,4.20
2023-03-29T15:15:44.418Z,4.20
2023-03-29T15:18:30.095Z,3.83
2023-03-29T15:21:18.030Z,3.70
2023-03-29T15:24:01.458Z,3.80
2023-03-29T15:26:44.122Z,3.65
2023-03-29T15:29:34.297Z,3.83
2023-03-29T15:32:24.007Z,3.90
2023-03-29T15:35:07.890Z,3.70
2023-03-29T15:37:53.045Z,4.00
2023-03-29T15:40:36.522Z,3.83
2023-03-29T15:43:19.751Z,3.67
2023-03-29T15:46:02.634Z,4.43
2023-03-29T15:48:45.837Z,3.90
2023-03-29T15:51:28.422Z,4.30
2023-03-29T15:54:12.412Z,4.03
2023-03-29T15:56:56.493Z,4.65
2023-03-29T15:59:39.207Z,4.13
2023-03-29T16:02:23.404Z,4.30
2023-03-29T16:05:06.379Z,4.20
2023-03-29T16:07:49.082Z,4.43
2023-03-29T16:10:33.128Z,4.30
2023-03-29T16:13:16.076Z,4.07
2023-03-29T16:15:58.899Z,4.47
2023-03-29T16:18:41.502Z,4.28
2023-03-29T16:21:24.412Z,4.10
2023-03-29T16:24:07.510Z,4.07
2023-03-29T16:26:54.627Z,4.38
2023-03-29T16:29:38.160Z,3.97
2023-03-29T16:32:20.869Z,4.35
2023-03-29T16:35:04.540Z,4.38
2023-03-29T16:37:47.215Z,4.80
2023-03-29T16:40:29.849Z,4.28
2023-03-29T16:43:16.118Z,4.65
2023-03-29T16:45:58.796Z,4.75
2023-03-29T16:48:42.205Z,4.57
2023-03-29T16:51:25.225Z,5.20
2023-03-29T16:54:09.217Z,4.57
2023-03-29T16:56:52.141Z,4.60
2023-03-29T16:59:36.251Z,4.35
2023-03-29T17:02:18.871Z,4.47
2023-03-29T17:05:01.534Z,4.97
2023-03-29T17:07:44.312Z,4.50
2023-03-29T17:10:26.929Z,4.65
2023-03-29T17:13:09.802Z,4.60
2023-03-29T17:15:55.120Z,5.10
2023-03-29T17:18:38.234Z,5.00
2023-03-29T17:21:21.431Z,4.63
2023-03-29T17:24:04.219Z,4.90
2023-03-29T17:26:47.034Z,5.28
2023-03-29T17:29:29.637Z,4.80
2023-03-29T17:32:13.704Z,4.82
2023-03-29T17:34:56.391Z,4.32
2023-03-29T17:37:39.111Z,5.00
2023-03-29T17:40:22.422Z,5.22
2023-03-29T17:43:05.070Z,4.90
2023-03-29T17:45:50.791Z,4.95
2023-03-29T17:48:34.826Z,5.18
2023-03-29T17:51:17.696Z,5.10
2023-03-29T17:54:01.716Z,5.35
2023-03-29T17:56:44.707Z,5.15
2023-03-29T17:59:27.574Z,5.18
2023-03-29T18:02:12.227Z,5.25
2023-03-29T18:04:57.286Z,5.20
2023-03-29T18:07:39.876Z,5.47
2023-03-29T18:10:22.532Z,5.63
2023-03-29T18:13:05.214Z,4.80
2023-03-29T18:15:47.857Z,5.38
2023-03-29T18:18:30.684Z,5.40
2023-03-29T18:21:15.052Z,5.18
2023-03-29T18:23:57.672Z,4.88
2023-03-29T18:26:40.597Z,5.40
2023-03-29T18:29:23.888Z,5.65
2023-03-29T18:32:07.089Z,5.53
2023-03-29T18:34:49.816Z,5.60
2023-03-29T18:37:33.870Z,5.80
2023-03-29T18:40:20.111Z,5.68
2023-03-29T18:43:02.819Z,6.40
2023-03-29T18:45:45.604Z,5.80
2023-03-29T18:48:28.351Z,6.13
2023-03-29T18:51:11.885Z,6.15
2023-03-29T18:53:56.557Z,5.97
2023-03-29T18:56:39.347Z,5.85
2023-03-29T18:59:22.082Z,5.72
2023-03-29T19:02:05.150Z,5.68
2023-03-29T19:04:47.835Z,5.85
2023-03-29T19:07:30.489Z,5.90
2023-03-29T19:10:14.493Z,5.82
2023-03-29T19:12:57.094Z,6.47
2023-03-29T19:15:40.570Z,5.97
2023-03-29T19:18:23.270Z,5.95
2023-03-29T19:21:06.016Z,5.80
2023-03-29T19:23:52.719Z,6.20
2023-03-29T19:26:37.289Z,5.50
2023-03-29T19:29:19.923Z,5.65
2023-03-29T19:32:02.810Z,5.88
2023-03-29T19:34:46.145Z,6.03
2023-03-29T19:37:28.800Z,5.88
2023-03-29T19:40:11.788Z,5.82
2023-03-29T19:42:55.829Z,5.78
2023-03-29T19:45:38.419Z,5.90
2023-03-29T19:48:23.821Z,6.05
2023-03-29T19:51:07.899Z,5.90
2023-03-29T19:53:50.641Z,5.50
2023-03-29T19:56:34.759Z,5.90
2023-03-29T19:59:20.199Z,5.75
2023-03-29T20:02:02.854Z,5.88
2023-03-29T20:04:45.620Z,6.13
2023-03-29T20:07:28.258Z,6.00
2023-03-29T20:10:11.360Z,5.95
2023-03-29T20:12:56.749Z,5.90
2023-03-29T20:15:40.774Z,6.35
2023-03-29T20:18:23.636Z,6.30
2023-03-29T20:21:06.640Z,6.47
2023-03-29T20:23:49.345Z,6.13
2023-03-29T20:26:32.291Z,6.80
2023-03-29T20:29:16.266Z,6.50
2023-03-29T20:32:00.473Z,6.95
2023-03-29T20:34:43.113Z,6.55
2023-03-29T20:37:25.953Z,6.97
2023-03-29T20:40:09.319Z,6.55
2023-03-29T20:42:54.085Z,6.78
2023-03-29T20:45:49.844Z,6.80
2023-03-29T20:48:38.206Z,6.55
2023-03-29T20:51:21.242Z,6.60
2023-03-29T20:54:05.075Z,6.82
2023-03-29T20:56:47.868Z,6.72
2023-03-29T20:59:30.862Z,6.35
2023-03-29T21:02:14.749Z,6.20
2023-03-29T21:05:00.258Z,6.68
2023-03-29T21:07:44.732Z,6.72
2023-03-29T21:10:28.165Z,6.60
2023-03-29T21:13:11.760Z,6.28
2023-03-29T21:15:54.428Z,6.45
2023-03-29T21:18:38.523Z,6.63
2023-03-29T21:21:23.083Z,6.57
2023-03-29T21:24:06.126Z,6.78
2023-03-29T21:26:48.879Z,6.72
2023-03-29T21:29:31.509Z,6.57
2023-03-29T21:32:14.240Z,6.47
2023-03-29T21:34:56.871Z,5.93
2023-03-29T21:37:41.495Z,6.43
2023-03-29T21:40:24.171Z,6.53
2023-03-29T21:43:06.821Z,6.25
2023-03-29T21:45:49.452Z,6.82
2023-03-29T21:48:32.125Z,6.70
2023-03-29T21:51:14.793Z,6.78
2023-03-29T21:53:58.816Z,6.68
2023-03-29T21:56:41.572Z,6.85
2023-03-29T21:59:24.257Z,6.32
2023-03-29T22:02:06.999Z,6.88
2023-03-29T22:04:49.662Z,6.15
2023-03-29T22:07:35.141Z,6.35
2023-03-29T22:10:22.937Z,6.82
2023-03-29T22:13:05.874Z,6.35
2023-03-29T22:15:49.777Z,6.32
2023-03-29T22:18:42.467Z,7.65
2023-03-29T22:21:26.806Z,6.93
2023-03-29T22:24:09.405Z,7.15
2023-03-29T22:26:53.370Z,6.72
2023-03-29T22:29:35.997Z,6.85
2023-03-29T22:32:18.675Z,7.22
2023-03-29T22:35:01.523Z,7.18
2023-03-29T22:37:44.826Z,6.90
2023-03-29T22:40:27.426Z,7.40
2023-03-29T22:43:11.499Z,7.00
2023-03-29T22:45:54.142Z,6.93
2023-03-29T22:48:37.133Z,7.15
2023-03-29T22:51:19.888Z,6.22
2023-03-29T22:54:02.647Z,7.03
2023-03-29T22:56:45.553Z,6.95
2023-03-29T22:59:29.682Z,6.63
2023-03-29T23:02:12.347Z,7.28
2023-03-29T23:04:55.167Z,6.50
2023-03-29T23:07:37.802Z,7.28
2023-03-29T23:10:20.470Z,6.95
2023-03-29T23:13:08.871Z,6.93
2023-03-29T23:15:53.775Z,7.70
2023-03-29T23:18:37.400Z,7.07
2023-03-29T23:21:20.256Z,7.75
2023-03-29T23:24:02.802Z,7.65
2023-03-29T23:26:45.493Z,7.18
2023-03-29T23:29:28.294Z,7.65
2023-03-29T23:32:12.416Z,7.47
2023-03-29T23:34:55.035Z,7.07
2023-03-29T23:37:37.801Z,7.75
2023-03-29T23:40:20.460Z,7.75
2023-03-29T23:43:04.180Z,7.85
2023-03-29T23:45:47.095Z,7.40
2023-03-29T23:48:31.589Z,7.55
2023-03-29T23:51:14.200Z,7.55
2023-03-29T23:53:56.931Z,7.60
2023-03-29T23:56:39.582Z,7.82
2023-03-29T23:59:22.991Z,7.90
